Catàleg de serveis del Meteocat
Campanya meteocatpedra

Dades de l'estació automàtica Oliana

?
?
Resum diari 21:30 TU
Dades diàries de l'estació meteorològica
Temperatura mitjana 6.0 °C
Temperatura màxima 13.1 °C 13:46 TU
Temperatura mínima 0.4 °C 2:47 TU
Humitat relativa mitjana 88%
Precipitació acumulada 0.2 mm
Ratxa màxima del vent (2 m) 23.8 km/h - 181º 14:26 TU
Irradiació solar global 8.1 MJ/m2

El tram horari està expressat en Temps Universal (TU). Cal sumar una hora en horari d'hivern i dues en horari d'estiu per passar a l'hora oficial.

Oliana

Metadades estació meteorol´gica
Municipi Oliana
Comarca Alt Urgell
Altitud 490 m
Data alta 22.06.2000
Estat actual Operativa
Dades de període
Període
TU
TM
°C
TX
°C
TN
°C
HRM
%
PPT
mm
VVM (2 m)
km/h
DVM (2 m)
graus
VVX (2 m)
km/h
RS
W/m2
00:00 - 00:30 1.9 2.4 1.2 97 0.0 2.2 56 4.3 0
00:30 - 01:00 1.1 1.4 0.8 98 0.0 0.7 97 2.9 0
01:00 - 01:30 1.2 1.4 1.0 98 0.0 1.1 88 3.2 0
01:30 - 02:00 1.4 1.5 1.2 99 0.0 2.5 51 5.8 0
02:00 - 02:30 1.1 1.5 0.9 99 0.0 1.1 46 3.6 0
02:30 - 03:00 0.6 0.9 0.4 99 0.0 0.7 91 4.3 0
03:00 - 03:30 0.7 0.9 0.5 100 0.0 1.8 135 5.0 0
03:30 - 04:00 1.0 1.1 0.9 100 0.0 1.1 119 5.4 0
04:00 - 04:30 1.1 1.3 1.0 100 0.0 1.8 210 5.8 0
04:30 - 05:00 1.2 1.3 1.2 100 0.2 1.8 117 5.0 0
05:00 - 05:30 1.2 1.3 1.1 100 0.0 1.1 64 4.3 0
05:30 - 06:00 1.2 1.5 1.0 100 0.0 1.4 80 5.8 0
06:00 - 06:30 1.5 1.8 1.3 100 0.0 2.2 99 6.5 0
06:30 - 07:00 2.2 2.8 1.7 100 0.0 1.8 127 6.5 2
07:00 - 07:30 2.9 3.8 2.4 100 0.0 4.3 151 7.6 15
07:30 - 08:00 3.4 4.0 3.0 94 0.0 4.3 175 8.3 29
08:00 - 08:30 3.7 4.0 3.0 95 0.0 1.8 166 4.7 65
08:30 - 09:00 4.2 4.9 4.0 94 0.0 1.8 128 6.5 104
09:00 - 09:30 5.7 6.1 4.9 87 0.0 2.2 192 6.1 140
09:30 - 10:00 6.6 7.1 6.1 78 0.0 2.5 187 5.4 146
10:00 - 10:30 6.9 7.3 6.7 78 0.0 2.9 193 6.5 182
10:30 - 11:00 7.5 8.3 7.3 75 0.0 0.7 261 2.9 224
11:00 - 11:30 8.8 9.1 8.4 71 0.0 2.9 216 7.2 371
11:30 - 12:00 10.2 10.9 9.1 64 0.0 3.2 190 6.8 521
12:00 - 12:30 11.3 12.1 10.8 64 0.0 3.6 224 9.7 507
12:30 - 13:00 12.1 12.6 11.8 63 0.0 5.4 207 10.4 481
13:00 - 13:30 12.2 12.6 11.9 63 0.0 5.8 209 13.3 445
13:30 - 14:00 12.7 13.1 12.4 62 0.0 5.4 190 15.1 395
14:00 - 14:30 12.6 12.9 12.2 63 0.0 10.8 186 23.8 333
14:30 - 15:00 12.0 12.2 11.9 65 0.0 12.2 200 23.8 264
15:00 - 15:30 11.5 12.0 11.0 69 0.0 9.7 194 17.6 184
15:30 - 16:00 10.6 10.9 10.0 73 0.0 7.6 181 14.0 96
16:00 - 16:30 9.3 10.0 8.9 81 0.0 6.8 164 13.3 17
16:30 - 17:00 8.5 9.0 7.4 86 0.0 2.9 101 13.0 0
17:00 - 17:30 7.2 7.4 7.0 93 0.0 2.2 69 5.4 0
17:30 - 18:00 7.2 7.5 6.9 92 0.0 2.2 38 5.4 0
18:00 - 18:30 7.7 7.8 7.5 92 0.0 1.1 34 3.6 0
18:30 - 19:00 7.6 8.0 7.3 93 0.0 0.7 101 3.2 0
19:00 - 19:30 7.8 8.1 7.6 93 0.0 1.1 24 3.6 0
19:30 - 20:00 7.8 8.0 7.7 93 0.0 3.2 121 7.9 0
20:00 - 20:30 7.9 8.1 7.7 92 0.0 0.7 11 4.0 0
20:30 - 21:00 7.6 7.7 7.5 94 0.0 2.2 191 5.4 0
21:00 - 21:30 7.3 7.5 6.8 96 0.0 0.7 332 2.9 0
21:30 - 22:00 6.4 6.8 6.3 98 0.0 0.7 109 2.9 0

Les dades en taronja només han passat un control de qualitat automàtic. Resta pendent la seva validació definitiva.